sensor_id;sensor_type;location;lat;lon;timestamp;pressure;altitude;pressure_sealevel;temperature;humidity
80333;BME280;69652;51.864;-2.246;2023-09-19T00:00:57;100634.84;;;13.91;73.00
80333;BME280;69652;51.864;-2.246;2023-09-19T00:03:23;100625.19;;;13.93;72.98
80333;BME280;69652;51.864;-2.246;2023-09-19T00:05:49;100624.59;;;13.88;73.56
80333;BME280;69652;51.864;-2.246;2023-09-19T00:08:15;100621.06;;;13.87;72.67
80333;BME280;69652;51.864;-2.246;2023-09-19T00:10:41;100607.75;;;13.86;73.32
80333;BME280;69652;51.864;-2.246;2023-09-19T00:13:07;100601.97;;;13.87;72.44
80333;BME280;69652;51.864;-2.246;2023-09-19T00:15:41;100615.94;;;13.86;72.29
80333;BME280;69652;51.864;-2.246;2023-09-19T00:18:07;100620.72;;;13.89;71.41
80333;BME280;69652;51.864;-2.246;2023-09-19T00:20:37;100608.50;;;13.95;70.41
80333;BME280;69652;51.864;-2.246;2023-09-19T00:23:04;100603.50;;;13.97;70.48
80333;BME280;69652;51.864;-2.246;2023-09-19T00:25:30;100600.47;;;13.98;70.64
80333;BME280;69652;51.864;-2.246;2023-09-19T00:27:57;100603.19;;;13.98;69.67
80333;BME280;69652;51.864;-2.246;2023-09-19T00:30:23;100600.59;;;14.02;69.73
80333;BME280;69652;51.864;-2.246;2023-09-19T00:32:50;100591.16;;;13.99;69.40
80333;BME280;69652;51.864;-2.246;2023-09-19T00:35:20;100584.25;;;14.02;69.75
80333;BME280;69652;51.864;-2.246;2023-09-19T00:37:49;100585.22;;;13.97;69.42
80333;BME280;69652;51.864;-2.246;2023-09-19T00:40:14;100577.34;;;13.96;69.30
80333;BME280;69652;51.864;-2.246;2023-09-19T00:42:44;100586.00;;;13.98;68.70
80333;BME280;69652;51.864;-2.246;2023-09-19T00:45:12;100590.88;;;13.92;69.26
80333;BME280;69652;51.864;-2.246;2023-09-19T00:47:43;100586.88;;;13.90;70.09
80333;BME280;69652;51.864;-2.246;2023-09-19T00:50:12;100585.75;;;13.91;70.10
80333;BME280;69652;51.864;-2.246;2023-09-19T00:52:40;100579.66;;;13.85;70.41
80333;BME280;69652;51.864;-2.246;2023-09-19T00:55:11;100573.41;;;13.85;70.94
80333;BME280;69652;51.864;-2.246;2023-09-19T00:57:38;100573.41;;;13.85;71.02
80333;BME280;69652;51.864;-2.246;2023-09-19T01:00:10;100566.34;;;13.84;71.78
80333;BME280;69652;51.864;-2.246;2023-09-19T01:02:44;100566.34;;;13.84;71.87
80333;BME280;69652;51.864;-2.246;2023-09-19T01:05:10;100563.94;;;13.82;71.42
80333;BME280;69652;51.864;-2.246;2023-09-19T01:07:36;100558.63;;;13.86;72.29
80333;BME280;69652;51.864;-2.246;2023-09-19T01:10:06;100551.41;;;13.81;72.48
80333;BME280;69652;51.864;-2.246;2023-09-19T01:15:12;100554.78;;;13.87;72.67
80333;BME280;69652;51.864;-2.246;2023-09-19T01:17:48;100548.84;;;13.85;71.88
80333;BME280;69652;51.864;-2.246;2023-09-19T01:20:50;100555.44;;;13.84;72.19
80333;BME280;69652;51.864;-2.246;2023-09-19T01:26:06;100569.38;;;13.91;71.82
80333;BME280;69652;51.864;-2.246;2023-09-19T01:31:09;100555.03;;;13.94;72.06
80333;BME280;69652;51.864;-2.246;2023-09-19T01:33:56;100564.34;;;13.93;72.56
80333;BME280;69652;51.864;-2.246;2023-09-19T01:36:36;100565.16;;;13.93;73.71
80333;BME280;69652;51.864;-2.246;2023-09-19T01:39:09;100557.19;;;13.88;73.11
80333;BME280;69652;51.864;-2.246;2023-09-19T01:44:53;100537.84;;;13.72;75.10
80333;BME280;69652;51.864;-2.246;2023-09-19T01:47:27;100535.09;;;13.72;75.02
80333;BME280;69652;51.864;-2.246;2023-09-19T01:52:57;100536.84;;;13.77;76.37
80333;BME280;69652;51.864;-2.246;2023-09-19T01:55:28;100530.28;;;13.78;75.86
80333;BME280;69652;51.864;-2.246;2023-09-19T01:58:01;100534.94;;;13.78;76.55
80333;BME280;69652;51.864;-2.246;2023-09-19T02:00:32;100535.41;;;13.80;76.32
80333;BME280;69652;51.864;-2.246;2023-09-19T02:02:59;100540.72;;;13.76;77.69
80333;BME280;69652;51.864;-2.246;2023-09-19T02:05:25;100539.59;;;13.77;77.40
80333;BME280;69652;51.864;-2.246;2023-09-19T02:07:52;100537.34;;;13.79;76.79
80333;BME280;69652;51.864;-2.246;2023-09-19T02:10:24;100538.59;;;13.82;78.46
80333;BME280;69652;51.864;-2.246;2023-09-19T02:12:50;100536.47;;;13.87;78.05
80333;BME280;69652;51.864;-2.246;2023-09-19T02:15:16;100537.59;;;13.86;78.43
80333;BME280;69652;51.864;-2.246;2023-09-19T02:17:42;100533.09;;;13.90;78.55
80333;BME280;69652;51.864;-2.246;2023-09-19T02:20:10;100528.78;;;13.89;78.16
80333;BME280;69652;51.864;-2.246;2023-09-19T02:22:43;100537.06;;;13.93;79.37
80333;BME280;69652;51.864;-2.246;2023-09-19T02:25:09;100522.78;;;13.96;79.33
80333;BME280;69652;51.864;-2.246;2023-09-19T02:27:35;100525.50;;;13.96;78.78
80333;BME280;69652;51.864;-2.246;2023-09-19T02:30:01;100519.72;;;13.97;79.67
80333;BME280;69652;51.864;-2.246;2023-09-19T02:32:30;100505.94;;;13.94;80.64
80333;BME280;69652;51.864;-2.246;2023-09-19T02:35:01;100514.91;;;13.94;79.49
80333;BME280;69652;51.864;-2.246;2023-09-19T02:37:27;100495.38;;;13.92;80.31
80333;BME280;69652;51.864;-2.246;2023-09-19T02:39:53;100491.22;;;13.86;80.56
80333;BME280;69652;51.864;-2.246;2023-09-19T02:42:18;100499.75;;;13.85;80.64
80333;BME280;69652;51.864;-2.246;2023-09-19T02:44:44;100488.50;;;13.86;80.54
80333;BME280;69652;51.864;-2.246;2023-09-19T02:47:12;100483.38;;;13.85;81.56
80333;BME280;69652;51.864;-2.246;2023-09-19T02:49:37;100498.59;;;13.86;81.37
80333;BME280;69652;51.864;-2.246;2023-09-19T02:52:04;100488.50;;;13.86;81.20
80333;BME280;69652;51.864;-2.246;2023-09-19T02:54:30;100492.22;;;13.82;81.27
80333;BME280;69652;51.864;-2.246;2023-09-19T02:56:55;100491.28;;;13.78;82.17
80333;BME280;69652;51.864;-2.246;2023-09-19T02:59:21;100484.22;;;13.77;81.70
80333;BME280;69652;51.864;-2.246;2023-09-19T03:01:47;100476.38;;;13.75;81.13
80333;BME280;69652;51.864;-2.246;2023-09-19T03:04:14;100472.03;;;13.74;82.06
80333;BME280;69652;51.864;-2.246;2023-09-19T03:06:45;100475.41;;;13.71;81.83
80333;BME280;69652;51.864;-2.246;2023-09-19T03:09:10;100478.94;;;13.71;81.58
80333;BME280;69652;51.864;-2.246;2023-09-19T03:11:36;100462.91;;;13.70;82.30
80333;BME280;69652;51.864;-2.246;2023-09-19T03:14:02;100448.03;;;13.67;82.39
80333;BME280;69652;51.864;-2.246;2023-09-19T03:16:29;100446.09;;;13.68;82.15
80333;BME280;69652;51.864;-2.246;2023-09-19T03:18:55;100443.38;;;13.68;81.18
80333;BME280;69652;51.864;-2.246;2023-09-19T03:21:20;100434.84;;;13.69;82.35
80333;BME280;69652;51.864;-2.246;2023-09-19T03:23:47;100421.88;;;13.66;82.15
80333;BME280;69652;51.864;-2.246;2023-09-19T03:26:13;100419.63;;;13.68;81.38
80333;BME280;69652;51.864;-2.246;2023-09-19T03:28:42;100425.09;;;13.68;82.05
80333;BME280;69652;51.864;-2.246;2023-09-19T03:31:08;100423.13;;;13.69;81.96
80333;BME280;69652;51.864;-2.246;2023-09-19T03:33:34;100432.47;;;13.68;82.50
80333;BME280;69652;51.864;-2.246;2023-09-19T03:36:00;100433.91;;;13.65;81.92
80333;BME280;69652;51.864;-2.246;2023-09-19T03:38:26;100428.16;;;13.58;83.66
80333;BME280;69652;51.864;-2.246;2023-09-19T03:40:53;100423.81;;;13.66;82.26
80333;BME280;69652;51.864;-2.246;2023-09-19T03:43:18;100411.16;;;13.61;82.81
80333;BME280;69652;51.864;-2.246;2023-09-19T03:45:44;100392.47;;;13.51;84.07
80333;BME280;69652;51.864;-2.246;2023-09-19T03:48:12;100405.75;;;13.53;83.80
80333;BME280;69652;51.864;-2.246;2023-09-19T03:50:38;100406.75;;;13.48;84.00
80333;BME280;69652;51.864;-2.246;2023-09-19T03:53:05;100401.13;;;13.53;84.74
80333;BME280;69652;51.864;-2.246;2023-09-19T03:55:33;100396.56;;;13.57;83.36
80333;BME280;69652;51.864;-2.246;2023-09-19T03:58:01;100376.84;;;13.60;84.36
80333;BME280;69652;51.864;-2.246;2023-09-19T04:00:27;100366.13;;;13.55;84.64
80333;BME280;69652;51.864;-2.246;2023-09-19T04:02:52;100385.88;;;13.52;84.56
80333;BME280;69652;51.864;-2.246;2023-09-19T04:05:18;100380.34;;;13.61;83.55
80333;BME280;69652;51.864;-2.246;2023-09-19T04:07:44;100376.97;;;13.64;82.64
80333;BME280;69652;51.864;-2.246;2023-09-19T04:10:10;100380.28;;;13.69;83.44
80333;BME280;69652;51.864;-2.246;2023-09-19T04:12:37;100366.94;;;13.77;82.78
80333;BME280;69652;51.864;-2.246;2023-09-19T04:15:04;100364.78;;;13.82;82.32
80333;BME280;69652;51.864;-2.246;2023-09-19T04:17:33;100373.91;;;13.86;81.25
80333;BME280;69652;51.864;-2.246;2023-09-19T04:19:59;100371.00;;;13.91;81.29
80333;BME280;69652;51.864;-2.246;2023-09-19T04:22:25;100351.53;;;13.93;80.89
80333;BME280;69652;51.864;-2.246;2023-09-19T04:24:50;100363.72;;;13.95;81.40
80333;BME280;69652;51.864;-2.246;2023-09-19T04:27:16;100356.13;;;14.01;80.46
80333;BME280;69652;51.864;-2.246;2023-09-19T04:29:42;100371.84;;;14.04;81.23
80333;BME280;69652;51.864;-2.246;2023-09-19T04:32:07;100362.97;;;14.07;80.36
80333;BME280;69652;51.864;-2.246;2023-09-19T04:34:34;100365.59;;;14.03;80.06
80333;BME280;69652;51.864;-2.246;2023-09-19T04:37:00;100364.91;;;14.06;80.74
80333;BME280;69652;51.864;-2.246;2023-09-19T04:39:26;100367.78;;;14.10;80.76
80333;BME280;69652;51.864;-2.246;2023-09-19T04:41:52;100371.63;;;14.09;81.17
80333;BME280;69652;51.864;-2.246;2023-09-19T04:44:18;100379.63;;;14.14;80.14
80333;BME280;69652;51.864;-2.246;2023-09-19T04:46:44;100375.72;;;14.03;83.31
80333;BME280;69652;51.864;-2.246;2023-09-19T04:49:11;100378.16;;;13.96;83.93
80333;BME280;69652;51.864;-2.246;2023-09-19T04:51:37;100375.31;;;13.92;83.80
80333;BME280;69652;51.864;-2.246;2023-09-19T04:54:03;100363.81;;;13.87;85.01
80333;BME280;69652;51.864;-2.246;2023-09-19T04:56:29;100370.38;;;13.86;84.74
80333;BME280;69652;51.864;-2.246;2023-09-19T04:58:54;100370.19;;;13.91;85.48
80333;BME280;69652;51.864;-2.246;2023-09-19T05:01:20;100369.88;;;13.92;84.72
80333;BME280;69652;51.864;-2.246;2023-09-19T05:03:48;100355.44;;;13.92;85.43
80333;BME280;69652;51.864;-2.246;2023-09-19T05:06:20;100350.69;;;14.01;84.71
80333;BME280;69652;51.864;-2.246;2023-09-19T05:08:49;100351.81;;;14.00;85.89
80333;BME280;69652;51.864;-2.246;2023-09-19T05:11:17;100352.75;;;14.04;85.41
80333;BME280;69652;51.864;-2.246;2023-09-19T05:13:42;100354.69;;;14.03;85.75
80333;BME280;69652;51.864;-2.246;2023-09-19T05:16:08;100345.69;;;14.03;86.79
80333;BME280;69652;51.864;-2.246;2023-09-19T05:18:35;100339.75;;;14.01;86.50
80333;BME280;69652;51.864;-2.246;2023-09-19T05:21:04;100336.25;;;14.00;86.44
80333;BME280;69652;51.864;-2.246;2023-09-19T05:23:30;100317.94;;;14.01;86.31
80333;BME280;69652;51.864;-2.246;2023-09-19T05:25:56;100312.59;;;14.04;86.41
80333;BME280;69652;51.864;-2.246;2023-09-19T05:28:25;100302.94;;;14.07;86.66
80333;BME280;69652;51.864;-2.246;2023-09-19T05:30:50;100329.75;;;14.05;86.89
80333;BME280;69652;51.864;-2.246;2023-09-19T05:33:16;100290.41;;;14.06;85.57
80333;BME280;69652;51.864;-2.246;2023-09-19T05:35:43;100301.91;;;13.99;86.06
80333;BME280;69652;51.864;-2.246;2023-09-19T05:38:09;100271.53;;;14.01;86.43
80333;BME280;69652;51.864;-2.246;2023-09-19T05:40:35;100267.41;;;13.95;86.41
80333;BME280;69652;51.864;-2.246;2023-09-19T05:43:01;100275.59;;;13.95;85.94
80333;BME280;69652;51.864;-2.246;2023-09-19T05:45:34;100258.91;;;13.96;85.65
80333;BME280;69652;51.864;-2.246;2023-09-19T05:48:11;100278.94;;;14.00;85.35
80333;BME280;69652;51.864;-2.246;2023-09-19T05:50:39;100275.53;;;14.03;85.46
80333;BME280;69652;51.864;-2.246;2023-09-19T05:53:05;100260.41;;;14.06;86.03
80333;BME280;69652;51.864;-2.246;2023-09-19T05:55:31;100249.63;;;14.09;85.55
80333;BME280;69652;51.864;-2.246;2023-09-19T05:57:57;100259.19;;;14.16;84.98
80333;BME280;69652;51.864;-2.246;2023-09-19T06:00:23;100240.31;;;14.23;83.67
80333;BME280;69652;51.864;-2.246;2023-09-19T06:02:51;100241.34;;;14.30;83.63
80333;BME280;69652;51.864;-2.246;2023-09-19T06:05:17;100246.59;;;14.35;83.36
80333;BME280;69652;51.864;-2.246;2023-09-19T06:07:42;100245.72;;;14.43;82.16
80333;BME280;69652;51.864;-2.246;2023-09-19T06:10:08;100238.44;;;14.48;82.25
80333;BME280;69652;51.864;-2.246;2023-09-19T06:12:42;100217.94;;;14.54;81.30
80333;BME280;69652;51.864;-2.246;2023-09-19T06:15:14;100231.59;;;14.54;81.86
80333;BME280;69652;51.864;-2.246;2023-09-19T06:17:49;100223.41;;;14.54;81.24
80333;BME280;69652;51.864;-2.246;2023-09-19T06:20:15;100216.72;;;14.51;81.34
80333;BME280;69652;51.864;-2.246;2023-09-19T06:22:42;100212.03;;;14.52;82.58
80333;BME280;69652;51.864;-2.246;2023-09-19T06:25:12;100212.81;;;14.52;82.33
80333;BME280;69652;51.864;-2.246;2023-09-19T06:27:53;100205.88;;;14.55;82.14
80333;BME280;69652;51.864;-2.246;2023-09-19T06:30:20;100195.53;;;14.60;81.55
80333;BME280;69652;51.864;-2.246;2023-09-19T06:32:46;100197.94;;;14.62;82.87
80333;BME280;69652;51.864;-2.246;2023-09-19T06:35:15;100202.59;;;14.61;82.22
80333;BME280;69652;51.864;-2.246;2023-09-19T06:37:42;100195.28;;;14.65;82.55
80333;BME280;69652;51.864;-2.246;2023-09-19T06:40:09;100191.75;;;14.65;82.15
80333;BME280;69652;51.864;-2.246;2023-09-19T06:42:43;100189.03;;;14.65;82.34
80333;BME280;69652;51.864;-2.246;2023-09-19T06:45:10;100203.94;;;14.67;82.22
80333;BME280;69652;51.864;-2.246;2023-09-19T06:47:39;100205.88;;;14.67;82.39
80333;BME280;69652;51.864;-2.246;2023-09-19T06:50:05;100202.00;;;14.68;83.16
80333;BME280;69652;51.864;-2.246;2023-09-19T06:52:32;100215.44;;;14.73;82.03
80333;BME280;69652;51.864;-2.246;2023-09-19T06:54:58;100198.91;;;14.81;81.58
80333;BME280;69652;51.864;-2.246;2023-09-19T06:57:23;100203.94;;;14.79;81.62
80333;BME280;69652;51.864;-2.246;2023-09-19T06:59:49;100204.25;;;14.78;82.92
80333;BME280;69652;51.864;-2.246;2023-09-19T07:02:15;100205.66;;;14.72;83.09
80333;BME280;69652;51.864;-2.246;2023-09-19T07:04:40;100219.19;;;14.80;83.26
80333;BME280;69652;51.864;-2.246;2023-09-19T07:07:07;100206.34;;;14.69;83.62
80333;BME280;69652;51.864;-2.246;2023-09-19T07:09:34;100199.94;;;14.65;84.20
80333;BME280;69652;51.864;-2.246;2023-09-19T07:12:00;100195.75;;;14.67;84.79
80333;BME280;69652;51.864;-2.246;2023-09-19T07:14:26;100184.50;;;14.57;84.72
80333;BME280;69652;51.864;-2.246;2023-09-19T07:16:52;100194.28;;;14.58;85.78
80333;BME280;69652;51.864;-2.246;2023-09-19T07:19:17;100185.75;;;14.59;84.74
80333;BME280;69652;51.864;-2.246;2023-09-19T07:21:43;100183.56;;;14.53;85.90
80333;BME280;69652;51.864;-2.246;2023-09-19T07:24:08;100198.50;;;14.55;85.77
80333;BME280;69652;51.864;-2.246;2023-09-19T07:26:34;100208.63;;;14.55;87.24
80333;BME280;69652;51.864;-2.246;2023-09-19T07:29:00;100194.63;;;14.44;87.78
80333;BME280;69652;51.864;-2.246;2023-09-19T07:31:27;100195.41;;;14.44;87.73
80333;BME280;69652;51.864;-2.246;2023-09-19T07:33:54;100205.31;;;14.37;88.97
80333;BME280;69652;51.864;-2.246;2023-09-19T07:36:19;100177.56;;;14.47;88.27
80333;BME280;69652;51.864;-2.246;2023-09-19T07:38:45;100185.97;;;14.54;87.78
80333;BME280;69652;51.864;-2.246;2023-09-19T07:41:10;100187.00;;;14.62;87.18
80333;BME280;69652;51.864;-2.246;2023-09-19T07:43:37;100211.22;;;14.63;87.21
80333;BME280;69652;51.864;-2.246;2023-09-19T07:46:06;100202.59;;;14.61;87.18
80333;BME280;69652;51.864;-2.246;2023-09-19T07:48:35;100194.72;;;14.72;86.74
80333;BME280;69652;51.864;-2.246;2023-09-19T07:51:07;100201.53;;;14.78;86.46
80333;BME280;69652;51.864;-2.246;2023-09-19T07:53:34;100197.66;;;14.79;86.75
80333;BME280;69652;51.864;-2.246;2023-09-19T07:56:07;100180.81;;;14.77;87.11
80333;BME280;69652;51.864;-2.246;2023-09-19T07:58:33;100172.25;;;14.91;85.59
80333;BME280;69652;51.864;-2.246;2023-09-19T08:01:08;100183.06;;;14.87;86.77
80333;BME280;69652;51.864;-2.246;2023-09-19T08:03:35;100207.31;;;14.89;86.75
80333;BME280;69652;51.864;-2.246;2023-09-19T08:06:06;100182.25;;;14.99;86.38
80333;BME280;69652;51.864;-2.246;2023-09-19T08:08:32;100187.38;;;15.00;85.68
80333;BME280;69652;51.864;-2.246;2023-09-19T08:11:02;100188.50;;;14.99;85.82
80333;BME280;69652;51.864;-2.246;2023-09-19T08:13:28;100178.13;;;15.05;85.95
80333;BME280;69652;51.864;-2.246;2023-09-19T08:15:53;100187.34;;;15.12;85.56
80333;BME280;69652;51.864;-2.246;2023-09-19T08:18:19;100180.22;;;15.24;85.19
80333;BME280;69652;51.864;-2.246;2023-09-19T08:20:50;100206.94;;;15.14;85.95
80333;BME280;69652;51.864;-2.246;2023-09-19T08:23:16;100178.91;;;15.17;85.76
80333;BME280;69652;51.864;-2.246;2023-09-19T08:25:43;100171.03;;;15.16;86.27
80333;BME280;69652;51.864;-2.246;2023-09-19T08:28:09;100168.25;;;15.28;85.28
80333;BME280;69652;51.864;-2.246;2023-09-19T08:30:37;100180.94;;;15.21;85.26
80333;BME280;69652;51.864;-2.246;2023-09-19T08:33:06;100166.22;;;15.25;85.96
80333;BME280;69652;51.864;-2.246;2023-09-19T08:35:32;100165.06;;;15.26;84.78
80333;BME280;69652;51.864;-2.246;2023-09-19T08:37:58;100168.09;;;15.37;83.73
80333;BME280;69652;51.864;-2.246;2023-09-19T08:40:25;100164.69;;;15.40;83.73
80333;BME280;69652;51.864;-2.246;2023-09-19T08:42:55;100178.47;;;15.43;82.65
80333;BME280;69652;51.864;-2.246;2023-09-19T08:45:22;100173.06;;;15.47;83.64
80333;BME280;69652;51.864;-2.246;2023-09-19T08:48:17;100197.09;;;15.53;83.56
80333;BME280;69652;51.864;-2.246;2023-09-19T08:50:52;100188.25;;;15.57;82.36
80333;BME280;69652;51.864;-2.246;2023-09-19T08:53:34;100203.34;;;15.66;82.35
80333;BME280;69652;51.864;-2.246;2023-09-19T08:56:03;100183.50;;;15.69;82.54
80333;BME280;69652;51.864;-2.246;2023-09-19T08:58:41;100196.81;;;15.71;83.03
80333;BME280;69652;51.864;-2.246;2023-09-19T09:01:09;100185.06;;;15.70;82.90
80333;BME280;69652;51.864;-2.246;2023-09-19T09:03:40;100188.53;;;15.67;83.63
80333;BME280;69652;51.864;-2.246;2023-09-19T09:06:09;100200.25;;;15.68;83.42
80333;BME280;69652;51.864;-2.246;2023-09-19T09:08:37;100198.06;;;15.73;82.71
80333;BME280;69652;51.864;-2.246;2023-09-19T09:11:05;100186.66;;;15.71;83.82
80333;BME280;69652;51.864;-2.246;2023-09-19T09:13:35;100187.09;;;15.73;83.24
80333;BME280;69652;51.864;-2.246;2023-09-19T09:16:01;100188.59;;;15.71;84.29
80333;BME280;69652;51.864;-2.246;2023-09-19T09:18:28;100194.63;;;15.76;83.94
80333;BME280;69652;51.864;-2.246;2023-09-19T09:20:57;100184.25;;;15.70;84.18
80333;BME280;69652;51.864;-2.246;2023-09-19T09:23:22;100191.88;;;15.76;83.34
80333;BME280;69652;51.864;-2.246;2023-09-19T09:25:53;100210.88;;;15.69;84.89
80333;BME280;69652;51.864;-2.246;2023-09-19T09:28:24;100198.38;;;15.56;85.16
80333;BME280;69652;51.864;-2.246;2023-09-19T09:30:50;100189.91;;;15.61;85.21
80333;BME280;69652;51.864;-2.246;2023-09-19T09:33:16;100208.19;;;15.57;85.88
80333;BME280;69652;51.864;-2.246;2023-09-19T09:35:58;100207.75;;;15.71;85.18
80333;BME280;69652;51.864;-2.246;2023-09-19T09:38:47;100196.72;;;15.67;86.24
80333;BME280;69652;51.864;-2.246;2023-09-19T09:41:16;100202.09;;;15.64;85.87
80333;BME280;69652;51.864;-2.246;2023-09-19T09:43:53;100197.59;;;15.71;85.20
80333;BME280;69652;51.864;-2.246;2023-09-19T09:46:24;100188.81;;;15.78;84.86
80333;BME280;69652;51.864;-2.246;2023-09-19T09:49:04;100194.09;;;15.86;85.31
80333;BME280;69652;51.864;-2.246;2023-09-19T09:51:49;100195.25;;;15.85;85.63
80333;BME280;69652;51.864;-2.246;2023-09-19T09:54:28;100193.66;;;15.84;85.39
80333;BME280;69652;51.864;-2.246;2023-09-19T09:57:01;100178.56;;;15.91;84.34
80333;BME280;69652;51.864;-2.246;2023-09-19T09:59:54;100174.59;;;15.88;85.31
80333;BME280;69652;51.864;-2.246;2023-09-19T10:02:28;100181.47;;;15.82;85.13
80333;BME280;69652;51.864;-2.246;2023-09-19T10:04:58;100184.19;;;15.82;86.13
80333;BME280;69652;51.864;-2.246;2023-09-19T10:07:50;100176.97;;;15.89;85.92
80333;BME280;69652;51.864;-2.246;2023-09-19T10:10:33;100177.34;;;15.88;86.84
80333;BME280;69652;51.864;-2.246;2023-09-19T10:13:10;100160.22;;;15.91;86.62
80333;BME280;69652;51.864;-2.246;2023-09-19T10:15:42;100152.06;;;15.95;85.61
80333;BME280;69652;51.864;-2.246;2023-09-19T10:18:20;100163.13;;;15.98;85.98
80333;BME280;69652;51.864;-2.246;2023-09-19T10:20:46;100156.75;;;15.94;86.27
80333;BME280;69652;51.864;-2.246;2023-09-19T10:23:18;100164.09;;;16.06;86.86
80333;BME280;69652;51.864;-2.246;2023-09-19T10:25:48;100155.97;;;16.09;86.74
80333;BME280;69652;51.864;-2.246;2023-09-19T10:28:16;100167.72;;;16.10;87.17
80333;BME280;69652;51.864;-2.246;2023-09-19T10:30:50;100158.34;;;16.11;87.09
80333;BME280;69652;51.864;-2.246;2023-09-19T10:33:18;100161.44;;;16.09;87.38
80333;BME280;69652;51.864;-2.246;2023-09-19T10:35:47;100154.38;;;16.08;88.49
80333;BME280;69652;51.864;-2.246;2023-09-19T10:38:16;100160.19;;;16.07;88.22
80333;BME280;69652;51.864;-2.246;2023-09-19T10:40:44;100165.88;;;16.14;87.39
80333;BME280;69652;51.864;-2.246;2023-09-19T10:43:16;100165.78;;;16.10;88.49
80333;BME280;69652;51.864;-2.246;2023-09-19T10:45:45;100166.91;;;16.09;88.35
80333;BME280;69652;51.864;-2.246;2023-09-19T10:48:12;100177.06;;;16.09;88.66
80333;BME280;69652;51.864;-2.246;2023-09-19T10:51:18;100173.19;;;16.10;89.81
80333;BME280;69652;51.864;-2.246;2023-09-19T10:53:47;100173.34;;;16.17;88.80
80333;BME280;69652;51.864;-2.246;2023-09-19T10:56:26;100168.25;;;16.15;90.10
80333;BME280;69652;51.864;-2.246;2023-09-19T10:59:08;100167.53;;;16.18;89.19
80333;BME280;69652;51.864;-2.246;2023-09-19T11:01:44;100164.72;;;16.15;89.99
80333;BME280;69652;51.864;-2.246;2023-09-19T11:04:35;100168.84;;;16.24;89.38
80333;BME280;69652;51.864;-2.246;2023-09-19T11:09:54;100170.63;;;16.17;89.59
80333;BME280;69652;51.864;-2.246;2023-09-19T11:15:01;100157.63;;;16.30;89.61
80333;BME280;69652;51.864;-2.246;2023-09-19T11:17:42;100161.94;;;16.31;90.20
80333;BME280;69652;51.864;-2.246;2023-09-19T11:30:40;100165.63;;;16.54;89.67
80333;BME280;69652;51.864;-2.246;2023-09-19T11:33:19;100152.28;;;16.52;90.22
80333;BME280;69652;51.864;-2.246;2023-09-19T11:36:14;100169.81;;;16.64;89.91
80333;BME280;69652;51.864;-2.246;2023-09-19T11:49:28;100138.50;;;16.65;90.96
80333;BME280;69652;51.864;-2.246;2023-09-19T11:51:55;100164.34;;;16.64;91.04
80333;BME280;69652;51.864;-2.246;2023-09-19T11:54:22;100141.84;;;16.74;90.58
80333;BME280;69652;51.864;-2.246;2023-09-19T11:56:51;100137.66;;;16.80;90.43
80333;BME280;69652;51.864;-2.246;2023-09-19T11:59:24;100145.25;;;16.86;90.67
80333;BME280;69652;51.864;-2.246;2023-09-19T12:02:18;100144.47;;;16.86;91.06
80333;BME280;69652;51.864;-2.246;2023-09-19T12:04:54;100139.81;;;16.90;91.19
80333;BME280;69652;51.864;-2.246;2023-09-19T12:07:19;100130.22;;;17.00;90.66
80333;BME280;69652;51.864;-2.246;2023-09-19T12:09:47;100140.84;;;17.01;90.82
80333;BME280;69652;51.864;-2.246;2023-09-19T12:12:26;100136.31;;;17.09;90.29
80333;BME280;69652;51.864;-2.246;2023-09-19T12:15:00;100138.63;;;17.07;89.79
80333;BME280;69652;51.864;-2.246;2023-09-19T12:17:39;100131.75;;;17.16;89.54
80333;BME280;69652;51.864;-2.246;2023-09-19T12:20:06;100137.75;;;17.22;89.23
80333;BME280;69652;51.864;-2.246;2023-09-19T12:22:43;100144.41;;;17.21;88.83
80333;BME280;69652;51.864;-2.246;2023-09-19T12:25:09;100140.50;;;17.22;89.09
80333;BME280;69652;51.864;-2.246;2023-09-19T12:30:12;100156.38;;;17.32;88.98
80333;BME280;69652;51.864;-2.246;2023-09-19T12:32:44;100170.53;;;17.34;88.73
80333;BME280;69652;51.864;-2.246;2023-09-19T12:37:55;100180.03;;;17.40;87.40
80333;BME280;69652;51.864;-2.246;2023-09-19T12:40:22;100163.22;;;17.42;86.86
80333;BME280;69652;51.864;-2.246;2023-09-19T12:42:53;100165.81;;;17.54;86.82
80333;BME280;69652;51.864;-2.246;2023-09-19T12:45:20;100162.13;;;17.65;85.97
80333;BME280;69652;51.864;-2.246;2023-09-19T12:48:22;100149.31;;;17.73;85.83
80333;BME280;69652;51.864;-2.246;2023-09-19T12:51:07;100144.81;;;17.84;84.55
80333;BME280;69652;51.864;-2.246;2023-09-19T12:53:39;100120.16;;;17.88;84.33
80333;BME280;69652;51.864;-2.246;2023-09-19T12:56:17;100142.84;;;17.85;84.04
80333;BME280;69652;51.864;-2.246;2023-09-19T13:01:15;100161.09;;;17.74;85.14
80333;BME280;69652;51.864;-2.246;2023-09-19T13:03:41;100173.91;;;17.66;85.91
80333;BME280;69652;51.864;-2.246;2023-09-19T13:06:07;100159.47;;;17.69;85.80
80333;BME280;69652;51.864;-2.246;2023-09-19T13:08:37;100154.47;;;17.55;86.83
80333;BME280;69652;51.864;-2.246;2023-09-19T13:11:17;100163.13;;;17.57;87.07
80333;BME280;69652;51.864;-2.246;2023-09-19T13:13:51;100143.28;;;17.45;87.45
80333;BME280;69652;51.864;-2.246;2023-09-19T13:16:21;100154.38;;;17.52;87.55
80333;BME280;69652;51.864;-2.246;2023-09-19T13:18:54;100151.66;;;17.52;88.02
80333;BME280;69652;51.864;-2.246;2023-09-19T13:21:29;100167.91;;;17.41;88.46
80333;BME280;69652;51.864;-2.246;2023-09-19T13:24:26;100161.25;;;17.42;88.33
80333;BME280;69652;51.864;-2.246;2023-09-19T13:26:53;100164.06;;;17.65;87.87
80333;BME280;69652;51.864;-2.246;2023-09-19T13:29:19;100164.09;;;17.88;85.40
80333;BME280;69652;51.864;-2.246;2023-09-19T13:31:48;100148.75;;;18.10;82.57
80333;BME280;69652;51.864;-2.246;2023-09-19T13:34:13;100170.44;;;18.15;81.48
80333;BME280;69652;51.864;-2.246;2023-09-19T13:36:41;100152.25;;;18.07;80.90
80333;BME280;69652;51.864;-2.246;2023-09-19T13:39:07;100172.22;;;18.30;80.50
80333;BME280;69652;51.864;-2.246;2023-09-19T13:41:35;100163.06;;;18.45;80.08